Time;durP1;ratioP1;P1;durP2;ratioP2;P2;SDS_P1;SDS_P2;PMS_P1;PMS_P2;Temp;Humidity;BMP_temperature;BMP_pressure;BME280_temperature;BME280_humidity;BME280_pressure;Samples;Min_cycle;Max_cycle;Signal;HPM_P1;HPM_P2
2022/07/23 00:02:42;;;;;;;20.88;17.25;;;;;;;;;;8398138;28;20044;-84
2022/07/23 00:06:45;;;;;;;22.67;18.38;;;;;;;;;;8395517;28;20404;-84
2022/07/23 00:10:49;;;;;;;21.88;16.95;;;;;;;;;;8394384;28;20064;-83
2022/07/23 00:14:52;;;;;;;21.20;17.00;;;;;;;;;;8389288;28;20056;-84
2022/07/23 00:18:54;;;;;;;26.13;17.50;;;;;;;;;;8397017;28;20036;-83
2022/07/23 00:22:57;;;;;;;19.63;16.85;;;;;;;;;;8395247;28;20068;-83
2022/07/23 00:27:01;;;;;;;20.40;17.15;;;;;;;;;;8396706;28;20079;-83
2022/07/23 00:31:04;;;;;;;18.67;15.80;;;;;;;;;;8383511;28;20047;-83
2022/07/23 00:35:07;;;;;;;21.15;16.30;;;;;;;;;;8386398;28;20043;-84
2022/07/23 00:39:10;;;;;;;21.38;16.15;;;;;;;;;;8390015;28;20055;-91
2022/07/23 00:43:14;;;;;;;20.23;16.13;;;;;;;;;;8393761;28;20480;-89
2022/07/23 00:47:17;;;;;;;22.92;17.55;;;;;;;;;;8393212;28;20052;-86
2022/07/23 00:51:20;;;;;;;21.05;15.88;;;;;;;;;;8388901;28;20056;-84
2022/07/23 00:55:23;;;;;;;20.83;16.33;;;;;;;;;;8379874;28;20040;-84
2022/07/23 00:59:27;;;;;;;20.85;17.20;;;;;;;;;;8393375;28;20055;-83
2022/07/23 01:03:30;;;;;;;20.70;16.67;;;;;;;;;;8396731;28;20511;-83
2022/07/23 01:07:32;;;;;;;20.63;16.00;;;;;;;;;;8387631;28;20044;-91
2022/07/23 01:11:37;;;;;;;25.23;17.55;;;;;;;;;;8381913;28;20123;-83
2022/07/23 01:15:41;;;;;;;20.27;15.77;;;;;;;;;;8395987;28;20055;-83
2022/07/23 01:19:44;;;;;;;19.85;15.48;;;;;;;;;;8396345;28;20404;-83
2022/07/23 01:23:48;;;;;;;21.30;17.45;;;;;;;;;;8388554;28;20052;-87
2022/07/23 01:27:52;;;;;;;20.08;15.90;;;;;;;;;;8383651;28;20120;-84
2022/07/23 01:31:54;;;;;;;20.35;15.88;;;;;;;;;;8395987;28;20068;-84
2022/07/23 01:35:57;;;;;;;19.77;16.33;;;;;;;;;;8384462;28;20047;-83
2022/07/23 01:40:01;;;;;;;20.95;16.90;;;;;;;;;;8388708;28;20040;-83
2022/07/23 01:44:04;;;;;;;26.27;17.63;;;;;;;;;;8395976;28;20049;-83
2022/07/23 01:48:08;;;;;;;22.33;17.65;;;;;;;;;;8394947;28;20044;-82
2022/07/23 01:52:11;;;;;;;25.70;17.75;;;;;;;;;;8392217;28;20051;-83
2022/07/23 01:56:15;;;;;;;23.25;16.83;;;;;;;;;;8394818;28;20445;-84
2022/07/23 02:00:18;;;;;;;20.75;17.02;;;;;;;;;;8394958;28;20044;-83
2022/07/23 02:04:21;;;;;;;22.63;17.38;;;;;;;;;;8388468;28;20044;-83
2022/07/23 02:08:24;;;;;;;22.50;17.15;;;;;;;;;;8402125;28;20473;-83
2022/07/23 02:12:28;;;;;;;21.73;16.25;;;;;;;;;;8401857;28;20048;-83
2022/07/23 02:16:31;;;;;;;22.15;16.95;;;;;;;;;;8401546;28;20071;-83
2022/07/23 02:20:33;;;;;;;18.52;14.63;;;;;;;;;;8398561;28;20459;-84
2022/07/23 02:24:36;;;;;;;21.52;16.73;;;;;;;;;;8398100;28;20086;-84
2022/07/23 02:28:40;;;;;;;21.88;16.80;;;;;;;;;;8396750;28;20044;-84
2022/07/23 02:32:43;;;;;;;22.83;16.20;;;;;;;;;;8397394;28;20060;-83
2022/07/23 02:36:45;;;;;;;20.70;15.57;;;;;;;;;;8400241;28;20040;-83
2022/07/23 02:40:48;;;;;;;20.60;16.13;;;;;;;;;;8387256;28;20044;-84
2022/07/23 02:44:53;;;;;;;22.63;17.30;;;;;;;;;;8400925;28;20408;-84
2022/07/23 02:48:56;;;;;;;20.63;15.25;;;;;;;;;;8388238;28;20037;-85
2022/07/23 02:52:58;;;;;;;24.23;17.83;;;;;;;;;;8385718;28;20090;-83
2022/07/23 02:57:01;;;;;;;20.70;17.20;;;;;;;;;;8393189;28;20071;-83
2022/07/23 03:01:05;;;;;;;19.90;15.90;;;;;;;;;;8396042;28;20054;-87
2022/07/23 03:05:09;;;;;;;20.48;15.82;;;;;;;;;;8400270;28;20094;-83
2022/07/23 03:09:11;;;;;;;19.95;16.23;;;;;;;;;;8392586;28;20274;-84
2022/07/23 03:13:14;;;;;;;21.65;16.65;;;;;;;;;;8394658;28;20047;-82
2022/07/23 03:17:18;;;;;;;22.48;17.45;;;;;;;;;;8393151;28;20394;-82
2022/07/23 03:21:21;;;;;;;20.90;15.40;;;;;;;;;;8398545;28;20107;-83
2022/07/23 03:25:23;;;;;;;20.52;15.63;;;;;;;;;;8399966;28;20102;-83
2022/07/23 03:29:26;;;;;;;25.13;16.95;;;;;;;;;;8399581;28;20052;-84
2022/07/23 03:33:30;;;;;;;21.00;16.75;;;;;;;;;;8398521;28;20048;-84
2022/07/23 03:37:33;;;;;;;21.58;17.05;;;;;;;;;;8399188;28;20493;-84
2022/07/23 03:41:35;;;;;;;22.88;16.50;;;;;;;;;;8399137;28;20045;-84
2022/07/23 03:45:38;;;;;;;26.73;17.05;;;;;;;;;;8397169;28;20131;-83
2022/07/23 03:49:42;;;;;;;20.25;16.40;;;;;;;;;;8399467;28;20454;-82
2022/07/23 03:53:45;;;;;;;21.95;16.65;;;;;;;;;;8392610;28;20047;-83
2022/07/23 03:57:48;;;;;;;23.00;17.55;;;;;;;;;;8398430;28;20047;-83
2022/07/23 04:01:50;;;;;;;26.45;19.23;;;;;;;;;;8398466;28;20128;-83
2022/07/23 04:05:54;;;;;;;24.70;18.52;;;;;;;;;;8397163;28;20051;-84
2022/07/23 04:09:57;;;;;;;22.40;17.77;;;;;;;;;;8398299;28;20037;-83
2022/07/23 04:14:00;;;;;;;24.48;17.20;;;;;;;;;;8397873;28;20116;-83
2022/07/23 04:18:03;;;;;;;23.70;17.65;;;;;;;;;;8396856;28;20135;-83
2022/07/23 04:22:08;;;;;;;21.20;17.00;;;;;;;;;;8397621;28;20040;-83
2022/07/23 04:26:11;;;;;;;25.33;18.92;;;;;;;;;;8397481;28;20044;-83
2022/07/23 04:30:14;;;;;;;25.90;17.83;;;;;;;;;;8395998;28;20044;-83
2022/07/23 04:34:17;;;;;;;24.25;17.95;;;;;;;;;;8397523;28;20040;-83
2022/07/23 04:38:21;;;;;;;24.33;18.85;;;;;;;;;;8397356;28;20056;-82
2022/07/23 04:42:23;;;;;;;22.00;16.92;;;;;;;;;;8396086;28;20049;-83
2022/07/23 04:46:26;;;;;;;23.65;15.93;;;;;;;;;;8397075;28;20407;-83
2022/07/23 04:50:28;;;;;;;23.48;17.60;;;;;;;;;;8396970;28;20048;-83
2022/07/23 04:54:32;;;;;;;25.05;18.05;;;;;;;;;;8395238;28;20095;-83
2022/07/23 04:58:38;;;;;;;21.70;18.02;;;;;;;;;;8396848;28;20053;-83
2022/07/23 05:02:41;;;;;;;21.63;17.65;;;;;;;;;;8396144;28;20068;-83
2022/07/23 05:06:44;;;;;;;23.77;17.48;;;;;;;;;;8386066;28;20048;-82
2022/07/23 05:10:48;;;;;;;24.02;17.35;;;;;;;;;;8388770;28;20073;-83
2022/07/23 05:14:52;;;;;;;24.38;17.33;;;;;;;;;;8392312;28;20052;-83
2022/07/23 05:18:55;;;;;;;20.73;16.83;;;;;;;;;;8395926;28;20045;-82
2022/07/23 05:22:57;;;;;;;20.67;16.45;;;;;;;;;;8394305;28;20036;-81
2022/07/23 05:27:01;;;;;;;23.00;17.65;;;;;;;;;;8393886;28;20120;-82
2022/07/23 05:31:04;;;;;;;21.08;16.55;;;;;;;;;;8394476;28;20044;-83
2022/07/23 05:35:08;;;;;;;22.92;17.33;;;;;;;;;;8396219;28;20049;-82
2022/07/23 05:39:11;;;;;;;24.63;17.05;;;;;;;;;;8396540;28;20044;-81
2022/07/23 05:43:15;;;;;;;25.02;17.13;;;;;;;;;;8402842;28;20459;-82
2022/07/23 05:47:18;;;;;;;25.27;18.25;;;;;;;;;;8398802;28;20045;-82
2022/07/23 05:51:22;;;;;;;27.42;19.20;;;;;;;;;;8402649;28;20095;-82
2022/07/23 05:55:25;;;;;;;28.92;19.70;;;;;;;;;;8399857;28;20044;-82
2022/07/23 05:59:30;;;;;;;26.27;19.45;;;;;;;;;;8398279;28;20468;-82
2022/07/23 06:03:33;;;;;;;28.65;19.08;;;;;;;;;;8400143;28;20045;-83
2022/07/23 06:07:37;;;;;;;28.50;18.77;;;;;;;;;;8402055;28;20047;-83
2022/07/23 06:11:40;;;;;;;23.00;17.75;;;;;;;;;;8402763;28;20049;-81
2022/07/23 06:15:45;;;;;;;21.45;17.08;;;;;;;;;;8400938;28;20059;-82
2022/07/23 06:19:48;;;;;;;21.52;17.30;;;;;;;;;;8395633;28;20037;-82
2022/07/23 06:23:51;;;;;;;20.70;16.17;;;;;;;;;;8399849;28;20128;-85
2022/07/23 06:27:55;;;;;;;23.10;15.80;;;;;;;;;;8390971;28;20390;-84
2022/07/23 06:32:00;;;;;;;22.13;15.52;;;;;;;;;;8395269;28;20059;-83
2022/07/23 06:36:04;;;;;;;20.08;14.45;;;;;;;;;;8401039;28;20116;-84
2022/07/23 06:40:12;;;;;;;20.02;14.45;;;;;;;;;;8400905;28;20041;-83
2022/07/23 06:44:20;;;;;;;15.38;13.27;;;;;;;;;;8399094;28;20619;-84
2022/07/23 06:48:31;;;;;;;17.17;13.13;;;;;;;;;;8361266;28;20036;-83
2022/07/23 06:52:40;;;;;;;18.13;13.05;;;;;;;;;;8375366;28;20607;-92
2022/07/23 06:57:01;;;;;;;16.45;12.00;;;;;;;;;;8387375;28;20476;-84
2022/07/23 07:01:12;;;;;;;12.95;9.52;;;;;;;;;;8383761;28;20634;-85
2022/07/23 07:05:29;;;;;;;11.07;8.35;;;;;;;;;;8391446;28;20049;-85
2022/07/23 07:10:07;;;;;;;11.45;7.40;;;;;;;;;;8368452;28;20670;-84
2022/07/23 07:14:30;;;;;;;9.93;7.90;;;;;;;;;;8376992;28;20036;-84
2022/07/23 07:19:02;;;;;;;9.10;7.45;;;;;;;;;;8373233;28;20045;-90
2022/07/23 07:23:30;;;;;;;10.98;7.68;;;;;;;;;;8348787;28;20041;-83
2022/07/23 07:27:46;;;;;;;11.63;7.60;;;;;;;;;;8363479;28;20043;-85
2022/07/23 07:31:57;;;;;;;8.57;7.18;;;;;;;;;;8374650;28;20614;-88
2022/07/23 07:36:13;;;;;;;8.77;7.55;;;;;;;;;;8391203;28;20408;-84
2022/07/23 07:40:27;;;;;;;9.15;6.93;;;;;;;;;;8380340;28;20050;-87
2022/07/23 07:44:42;;;;;;;10.23;7.40;;;;;;;;;;8393421;28;20044;-84
2022/07/23 07:48:57;;;;;;;7.55;6.78;;;;;;;;;;8363679;28;20044;-85
2022/07/23 07:53:15;;;;;;;10.88;7.45;;;;;;;;;;8385305;28;20079;-86
2022/07/23 07:57:56;;;;;;;14.52;7.00;;;;;;;;;;8384055;28;20106;-84
2022/07/23 08:02:21;;;;;;;11.45;7.70;;;;;;;;;;8379887;28;20044;-86
2022/07/23 08:06:55;;;;;;;9.13;7.32;;;;;;;;;;8384264;28;20044;-88
2022/07/23 08:11:12;;;;;;;10.07;7.10;;;;;;;;;;8384268;28;20119;-84
2022/07/23 08:15:38;;;;;;;8.02;6.13;;;;;;;;;;8390203;28;20068;-83
2022/07/23 08:19:50;;;;;;;8.20;6.00;;;;;;;;;;8369819;28;20048;-84
2022/07/23 08:23:53;;;;;;;9.07;6.70;;;;;;;;;;8387978;28;20055;-84
2022/07/23 08:27:58;;;;;;;8.65;6.32;;;;;;;;;;8387201;28;20044;-83
2022/07/23 08:32:02;;;;;;;6.65;5.82;;;;;;;;;;8396114;28;20048;-83
2022/07/23 08:36:06;;;;;;;7.35;6.22;;;;;;;;;;8397426;28;20045;-84
2022/07/23 08:40:11;;;;;;;8.18;5.60;;;;;;;;;;8393590;28;20496;-84
2022/07/23 08:44:17;;;;;;;10.00;6.40;;;;;;;;;;8397155;28;20472;-85
2022/07/23 08:48:23;;;;;;;9.10;6.47;;;;;;;;;;8397127;28;20059;-84
2022/07/23 08:52:28;;;;;;;9.82;6.53;;;;;;;;;;8396968;28;20047;-84
2022/07/23 08:56:40;;;;;;;7.75;6.10;;;;;;;;;;8373288;28;20056;-84
2022/07/23 09:00:51;;;;;;;8.57;6.03;;;;;;;;;;8396293;28;20048;-85
2022/07/23 09:05:14;;;;;;;12.85;6.05;;;;;;;;;;8371305;28;20128;-84
2022/07/23 09:09:29;;;;;;;10.75;6.80;;;;;;;;;;8379119;28;20040;-84
2022/07/23 09:14:03;;;;;;;8.98;6.40;;;;;;;;;;8390757;28;20044;-84
2022/07/23 09:18:10;;;;;;;7.55;5.85;;;;;;;;;;8348939;28;20045;-84
2022/07/23 09:22:24;;;;;;;7.78;5.65;;;;;;;;;;8358886;28;20033;-92
2022/07/23 09:26:35;;;;;;;10.73;5.95;;;;;;;;;;8346032;28;20512;-86
2022/07/23 09:30:49;;;;;;;8.27;5.75;;;;;;;;;;8354584;28;20056;-90
2022/07/23 09:35:00;;;;;;;7.82;6.18;;;;;;;;;;8348394;28;20045;-86
2022/07/23 09:39:31;;;;;;;9.23;6.15;;;;;;;;;;8339463;28;20468;-84
2022/07/23 09:43:50;;;;;;;10.43;8.25;;;;;;;;;;8354036;28;20049;-89
2022/07/23 09:48:21;;;;;;;7.72;6.10;;;;;;;;;;8338421;28;20084;-83
2022/07/23 09:52:50;;;;;;;9.95;7.05;;;;;;;;;;8360870;28;20856;-83
2022/07/23 09:57:01;;;;;;;8.25;6.15;;;;;;;;;;8370288;28;20045;-83
2022/07/23 10:01:07;;;;;;;8.90;6.38;;;;;;;;;;8361041;28;20045;-83
2022/07/23 10:05:14;;;;;;;10.45;6.78;;;;;;;;;;8368208;28;20055;-82
2022/07/23 10:09:26;;;;;;;8.23;6.78;;;;;;;;;;8330703;28;20527;-82
2022/07/23 10:17:55;;;;;;;9.75;6.20;;;;;;;;;;8407404;28;20063;-94
2022/07/23 10:22:02;;;;;;;7.35;5.72;;;;;;;;;;8392472;28;20059;-90
2022/07/23 10:26:14;;;;;;;7.22;6.22;;;;;;;;;;8398134;28;20036;-84
2022/07/23 10:30:36;;;;;;;8.85;5.80;;;;;;;;;;8392525;28;20076;-81
2022/07/23 10:34:46;;;;;;;10.60;5.70;;;;;;;;;;8397856;28;20554;-83
2022/07/23 10:38:55;;;;;;;9.00;5.20;;;;;;;;;;8379342;28;20044;-82
2022/07/23 10:43:02;;;;;;;8.82;5.35;;;;;;;;;;8393599;28;20040;-83
2022/07/23 10:51:24;;;;;;;7.93;5.30;;;;;;;;;;8405777;28;20041;-84
2022/07/23 10:55:51;;;;;;;10.65;5.85;;;;;;;;;;8394433;28;20040;-82
2022/07/23 11:00:25;;;;;;;7.22;5.60;;;;;;;;;;8392781;28;20098;-82
2022/07/23 11:04:54;;;;;;;6.63;5.43;;;;;;;;;;8391158;28;20082;-80
2022/07/23 11:09:25;;;;;;;8.25;5.82;;;;;;;;;;8393015;28;20040;-81
2022/07/23 11:13:35;;;;;;;7.38;6.07;;;;;;;;;;8391210;28;20512;-81
2022/07/23 11:18:00;;;;;;;9.02;5.60;;;;;;;;;;8398371;28;20052;-80
2022/07/23 11:22:05;;;;;;;6.72;5.43;;;;;;;;;;8398263;28;20484;-81
2022/07/23 11:26:09;;;;;;;7.25;5.90;;;;;;;;;;8393845;28;20037;-81
2022/07/23 11:30:40;;;;;;;7.45;5.53;;;;;;;;;;8394311;28;20622;-80
2022/07/23 11:34:46;;;;;;;9.65;5.70;;;;;;;;;;8397368;28;20757;-81
2022/07/23 11:38:52;;;;;;;7.25;5.68;;;;;;;;;;8397792;28;20040;-80
2022/07/23 11:42:59;;;;;;;8.52;5.60;;;;;;;;;;8398569;28;20218;-83
2022/07/23 11:47:04;;;;;;;8.50;6.97;;;;;;;;;;8392696;28;20693;-80
2022/07/23 11:51:08;;;;;;;9.23;6.53;;;;;;;;;;8392487;28;20084;-81
2022/07/23 11:55:16;;;;;;;9.00;5.93;;;;;;;;;;8393904;28;20040;-80
2022/07/23 11:59:20;;;;;;;11.13;6.10;;;;;;;;;;8386733;28;20409;-83
2022/07/23 12:03:24;;;;;;;7.72;5.50;;;;;;;;;;8391931;28;20488;-82
2022/07/23 12:07:31;;;;;;;7.35;5.65;;;;;;;;;;8393113;28;20051;-85
2022/07/23 12:11:35;;;;;;;8.00;5.68;;;;;;;;;;8384060;28;20122;-82
2022/07/23 12:15:42;;;;;;;7.72;5.65;;;;;;;;;;8394287;28;20508;-86
2022/07/23 12:19:49;;;;;;;8.13;5.63;;;;;;;;;;8380368;28;20044;-87
2022/07/23 12:23:52;;;;;;;10.55;6.32;;;;;;;;;;8389050;28;20105;-80
2022/07/23 12:28:11;;;;;;;13.82;6.10;;;;;;;;;;8391962;28;20056;-81
2022/07/23 12:32:30;;;;;;;7.75;6.00;;;;;;;;;;8392675;28;20119;-81
2022/07/23 12:36:41;;;;;;;8.15;5.85;;;;;;;;;;8390238;28;20056;-84
2022/07/23 12:40:51;;;;;;;7.75;5.75;;;;;;;;;;8388492;28;20040;-81
2022/07/23 12:45:10;;;;;;;11.13;6.10;;;;;;;;;;8385886;28;20041;-88
2022/07/23 12:49:28;;;;;;;7.20;5.90;;;;;;;;;;8389604;28;20098;-85
2022/07/23 12:53:33;;;;;;;7.72;5.80;;;;;;;;;;8397329;28;20047;-81
2022/07/23 12:57:49;;;;;;;7.43;5.90;;;;;;;;;;8380675;28;20127;-81
2022/07/23 13:01:59;;;;;;;8.20;6.43;;;;;;;;;;8394198;28;20479;-83
2022/07/23 13:06:07;;;;;;;8.82;6.28;;;;;;;;;;8378099;28;20542;-82
2022/07/23 13:10:12;;;;;;;10.65;6.32;;;;;;;;;;8377106;28;20064;-82
2022/07/23 13:14:19;;;;;;;9.90;6.70;;;;;;;;;;8384052;28;20044;-86
2022/07/23 13:18:24;;;;;;;9.15;6.78;;;;;;;;;;8383640;28;20413;-81
2022/07/23 13:22:29;;;;;;;6.65;5.53;;;;;;;;;;8387071;28;20049;-81
2022/07/23 13:26:32;;;;;;;7.90;6.13;;;;;;;;;;8394407;28;20054;-81
2022/07/23 13:30:35;;;;;;;9.07;6.47;;;;;;;;;;8391966;28;20048;-86
2022/07/23 13:34:42;;;;;;;8.02;6.15;;;;;;;;;;8382608;28;20060;-80
2022/07/23 13:38:47;;;;;;;7.97;6.70;;;;;;;;;;8394206;28;20048;-80
2022/07/23 13:42:51;;;;;;;8.00;6.55;;;;;;;;;;8392889;28;20052;-79
2022/07/23 13:46:54;;;;;;;10.80;7.03;;;;;;;;;;8387598;28;20098;-80
2022/07/23 13:50:59;;;;;;;8.80;6.90;;;;;;;;;;8383649;28;20044;-81
2022/07/23 13:55:03;;;;;;;10.63;6.75;;;;;;;;;;8392497;28;20052;-82
2022/07/23 13:59:07;;;;;;;9.65;7.20;;;;;;;;;;8383516;28;20044;-81
2022/07/23 14:03:11;;;;;;;8.70;6.95;;;;;;;;;;8394497;28;20044;-81
2022/07/23 14:07:22;;;;;;;8.35;7.28;;;;;;;;;;8396269;28;20078;-81
2022/07/23 14:11:30;;;;;;;8.85;6.70;;;;;;;;;;8389553;28;20464;-81
2022/07/23 14:15:40;;;;;;;9.10;6.88;;;;;;;;;;8387086;28;20147;-81
2022/07/23 14:19:46;;;;;;;11.27;7.10;;;;;;;;;;8393165;28;20056;-81
2022/07/23 14:23:52;;;;;;;9.15;6.82;;;;;;;;;;8395455;28;20045;-81
2022/07/23 14:27:56;;;;;;;9.77;6.38;;;;;;;;;;8382314;28;20048;-81
2022/07/23 14:31:59;;;;;;;8.68;6.60;;;;;;;;;;8390334;28;20434;-80
2022/07/23 14:36:04;;;;;;;9.40;6.60;;;;;;;;;;8391430;28;20045;-82
2022/07/23 14:40:09;;;;;;;9.02;6.70;;;;;;;;;;8383248;28;20044;-88
2022/07/23 14:44:13;;;;;;;11.30;7.40;;;;;;;;;;8376061;28;20508;-83
2022/07/23 14:48:17;;;;;;;8.82;6.72;;;;;;;;;;8381199;28;20417;-83
2022/07/23 14:52:21;;;;;;;9.75;7.40;;;;;;;;;;8391093;28;20094;-82
2022/07/23 14:56:26;;;;;;;12.30;7.70;;;;;;;;;;8377313;28;20052;-82
2022/07/23 15:00:30;;;;;;;13.38;7.18;;;;;;;;;;8392808;28;20125;-82
2022/07/23 15:04:34;;;;;;;15.85;7.80;;;;;;;;;;8382520;28;20065;-84
2022/07/23 15:08:37;;;;;;;13.38;5.53;;;;;;;;;;8369291;28;20045;-81
2022/07/23 15:12:41;;;;;;;13.20;5.22;;;;;;;;;;8384451;28;20051;-84
2022/07/23 15:16:45;;;;;;;11.27;5.40;;;;;;;;;;8380065;28;20055;-84
2022/07/23 15:20:49;;;;;;;12.52;5.20;;;;;;;;;;8384937;28;20099;-85
2022/07/23 15:24:53;;;;;;;5.60;4.47;;;;;;;;;;8374580;28;20501;-87
2022/07/23 15:29:02;;;;;;;9.55;4.68;;;;;;;;;;8537578;22;20056;-86
2022/07/23 15:33:16;;;;;;;9.73;4.97;;;;;;;;;;8388040;28;20040;-87
2022/07/23 15:37:24;;;;;;;6.10;4.32;;;;;;;;;;8366696;28;20133;-85
2022/07/23 15:41:37;;;;;;;8.73;3.83;;;;;;;;;;8368317;28;20044;-86
2022/07/23 15:45:49;;;;;;;10.38;4.40;;;;;;;;;;8379260;28;20051;-84
2022/07/23 15:50:03;;;;;;;8.13;4.25;;;;;;;;;;8373905;28;20129;-84
2022/07/23 15:54:10;;;;;;;7.28;4.90;;;;;;;;;;8376049;28;20495;-88
2022/07/23 15:58:16;;;;;;;7.28;4.32;;;;;;;;;;8363153;28;20508;-83
2022/07/23 16:02:30;;;;;;;7.10;4.45;;;;;;;;;;8380659;28;20041;-85
2022/07/23 16:06:37;;;;;;;6.25;4.07;;;;;;;;;;8372548;28;20048;-88
2022/07/23 16:10:44;;;;;;;6.13;4.10;;;;;;;;;;8377283;28;20045;-86
2022/07/23 16:14:48;;;;;;;6.32;3.85;;;;;;;;;;8379479;28;20052;-87
2022/07/23 16:18:53;;;;;;;8.65;4.18;;;;;;;;;;8382824;28;20480;-87
2022/07/23 16:22:56;;;;;;;6.05;4.05;;;;;;;;;;8374690;28;20432;-91
2022/07/23 16:27:00;;;;;;;4.68;3.67;;;;;;;;;;8385563;28;20056;-83
2022/07/23 16:31:04;;;;;;;6.53;4.00;;;;;;;;;;8392482;28;20044;-85
2022/07/23 16:35:10;;;;;;;5.63;3.85;;;;;;;;;;8378014;28;20127;-87
2022/07/23 16:39:13;;;;;;;5.80;3.67;;;;;;;;;;8392838;28;20041;-84
2022/07/23 16:43:16;;;;;;;7.03;4.00;;;;;;;;;;8391152;28;20044;-88
2022/07/23 16:47:20;;;;;;;7.85;3.92;;;;;;;;;;8392864;28;20084;-85
2022/07/23 16:51:27;;;;;;;6.43;4.30;;;;;;;;;;8376163;28;20045;-87
2022/07/23 16:55:35;;;;;;;5.63;3.97;;;;;;;;;;8361685;28;20432;-85
2022/07/23 16:59:38;;;;;;;5.10;3.80;;;;;;;;;;8362700;28;20420;-83
2022/07/23 17:03:44;;;;;;;5.53;3.83;;;;;;;;;;8360835;28;20095;-83
2022/07/23 17:07:53;;;;;;;6.00;4.20;;;;;;;;;;8361370;28;20037;-83
2022/07/23 17:11:58;;;;;;;5.88;4.25;;;;;;;;;;8362899;28;20076;-82
2022/07/23 17:16:01;;;;;;;6.05;4.47;;;;;;;;;;8361202;28;20040;-82
2022/07/23 17:20:10;;;;;;;6.30;4.93;;;;;;;;;;8361284;28;20049;-84
2022/07/23 17:24:21;;;;;;;8.30;5.20;;;;;;;;;;8362574;28;20451;-84
2022/07/23 17:28:29;;;;;;;8.45;5.20;;;;;;;;;;8361146;28;20069;-83
2022/07/23 17:32:34;;;;;;;8.27;5.43;;;;;;;;;;8361847;28;20486;-86
2022/07/23 17:36:37;;;;;;;7.20;5.28;;;;;;;;;;8365425;28;20401;-85
2022/07/23 17:40:43;;;;;;;7.82;5.25;;;;;;;;;;8367782;28;20040;-86
2022/07/23 17:44:51;;;;;;;7.10;5.10;;;;;;;;;;8368311;28;20424;-84
2022/07/23 17:48:59;;;;;;;7.93;5.70;;;;;;;;;;8367428;28;20394;-83
2022/07/23 17:53:04;;;;;;;7.13;5.72;;;;;;;;;;8367485;28;20052;-84
2022/07/23 17:57:11;;;;;;;9.77;6.10;;;;;;;;;;8368847;28;20060;-83
2022/07/23 18:01:15;;;;;;;8.80;5.90;;;;;;;;;;8367209;28;20045;-84
2022/07/23 18:05:21;;;;;;;8.80;5.88;;;;;;;;;;8368962;28;20123;-84
2022/07/23 18:09:26;;;;;;;8.52;6.13;;;;;;;;;;8366914;28;20102;-87
2022/07/23 18:13:32;;;;;;;8.60;6.10;;;;;;;;;;8366823;28;20094;-84
2022/07/23 18:17:37;;;;;;;8.55;6.30;;;;;;;;;;8366779;28;20045;-83
2022/07/23 18:21:40;;;;;;;8.57;6.82;;;;;;;;;;8367152;28;20120;-84
2022/07/23 18:25:45;;;;;;;8.13;6.35;;;;;;;;;;8368004;28;20053;-83
2022/07/23 18:29:52;;;;;;;7.93;6.28;;;;;;;;;;8368792;28;20053;-83
2022/07/23 18:33:57;;;;;;;8.60;6.00;;;;;;;;;;8368333;28;20575;-84
2022/07/23 18:38:01;;;;;;;8.60;6.55;;;;;;;;;;8365923;28;20045;-83
2022/07/23 18:42:08;;;;;;;7.90;6.57;;;;;;;;;;8365608;28;20045;-86
2022/07/23 18:46:16;;;;;;;10.30;8.38;;;;;;;;;;8367542;28;20045;-83
2022/07/23 18:50:20;;;;;;;11.30;8.32;;;;;;;;;;8372117;28;20041;-83
2022/07/23 18:54:24;;;;;;;10.88;8.20;;;;;;;;;;8374917;28;20053;-83
2022/07/23 18:58:28;;;;;;;8.38;5.70;;;;;;;;;;8380537;28;20428;-82
2022/07/23 19:02:33;;;;;;;9.57;7.10;;;;;;;;;;8385950;28;20048;-83
2022/07/23 19:06:36;;;;;;;9.02;6.47;;;;;;;;;;8372232;28;20045;-82
2022/07/23 19:10:40;;;;;;;8.65;6.38;;;;;;;;;;8383086;28;20094;-82
2022/07/23 19:14:43;;;;;;;8.43;6.13;;;;;;;;;;8384356;28;20056;-83
2022/07/23 19:18:48;;;;;;;11.77;6.80;;;;;;;;;;8366825;28;20045;-82
2022/07/23 19:22:52;;;;;;;9.68;6.95;;;;;;;;;;8381083;28;20039;-83
2022/07/23 19:26:55;;;;;;;10.23;6.82;;;;;;;;;;8388213;28;20057;-83
2022/07/23 19:30:59;;;;;;;9.32;6.85;;;;;;;;;;8382456;28;20409;-83
2022/07/23 19:35:05;;;;;;;9.55;6.57;;;;;;;;;;8387861;28;20047;-84
2022/07/23 19:39:10;;;;;;;9.18;6.78;;;;;;;;;;8386191;28;20136;-82
2022/07/23 19:43:16;;;;;;;9.52;7.80;;;;;;;;;;8390740;28;20041;-84
2022/07/23 19:47:32;;;;;;;10.98;8.00;;;;;;;;;;8383342;28;20044;-84
2022/07/23 19:51:54;;;;;;;10.23;7.35;;;;;;;;;;8390566;28;20047;-84
2022/07/23 19:55:57;;;;;;;;;;;;;;;;;;8388389;28;20178;-82
2022/07/23 20:00:04;;;;;;;10.38;7.20;;;;;;;;;;8378885;28;19920;-84
2022/07/23 20:04:10;;;;;;;10.60;7.97;;;;;;;;;;8384611;28;22079;-82
2022/07/23 20:08:28;;;;;;;9.73;7.68;;;;;;;;;;8384797;28;20044;-84
2022/07/23 20:12:38;;;;;;;11.88;8.73;;;;;;;;;;8381884;28;20485;-83
2022/07/23 20:16:42;;;;;;;12.85;7.97;;;;;;;;;;8398195;28;20045;-83
2022/07/23 20:25:42;;;;;;;9.80;7.68;;;;;;;;;;8378936;28;20040;-82
2022/07/23 20:29:48;;;;;;;14.45;8.38;;;;;;;;;;8382367;28;20127;-84
2022/07/23 20:33:58;;;;;;;14.65;8.38;;;;;;;;;;8387048;28;20040;-86
2022/07/23 20:38:02;;;;;;;10.32;8.02;;;;;;;;;;8398425;28;20123;-82
2022/07/23 20:42:08;;;;;;;11.80;9.00;;;;;;;;;;8397054;28;20095;-84
2022/07/23 20:46:12;;;;;;;12.23;8.32;;;;;;;;;;8397638;28;20127;-82
2022/07/23 20:50:18;;;;;;;10.18;7.72;;;;;;;;;;8397963;28;20474;-82
2022/07/23 20:54:23;;;;;;;10.38;7.90;;;;;;;;;;8382956;28;20064;-84
2022/07/23 20:58:28;;;;;;;10.48;8.05;;;;;;;;;;8405516;28;20416;-82
2022/07/23 21:02:34;;;;;;;12.57;8.27;;;;;;;;;;8397103;28;20401;-83
2022/07/23 21:06:41;;;;;;;11.65;8.45;;;;;;;;;;8388545;28;20483;-82
2022/07/23 21:10:48;;;;;;;10.75;8.68;;;;;;;;;;8381053;28;20524;-83
2022/07/23 21:14:59;;;;;;;11.23;7.82;;;;;;;;;;8389204;28;20082;-83
2022/07/23 21:19:07;;;;;;;13.25;8.93;;;;;;;;;;8390052;28;20040;-85
2022/07/23 21:23:11;;;;;;;12.10;9.23;;;;;;;;;;8382275;28;20497;-84
2022/07/23 21:27:16;;;;;;;13.35;9.70;;;;;;;;;;8396158;28;20048;-85
2022/07/23 21:31:21;;;;;;;12.48;8.75;;;;;;;;;;8384909;28;20488;-85
2022/07/23 21:35:29;;;;;;;13.10;9.55;;;;;;;;;;8385419;28;20076;-85
2022/07/23 21:39:35;;;;;;;12.63;9.55;;;;;;;;;;8396453;28;20045;-85
2022/07/23 21:43:41;;;;;;;14.63;9.82;;;;;;;;;;8396425;28;20503;-85
2022/07/23 21:47:48;;;;;;;13.38;9.93;;;;;;;;;;8397786;28;20499;-85
2022/07/23 21:51:52;;;;;;;16.80;10.32;;;;;;;;;;8396186;28;20040;-85
2022/07/23 21:55:56;;;;;;;14.95;10.75;;;;;;;;;;8405618;28;20068;-85
2022/07/23 22:00:00;;;;;;;14.38;11.00;;;;;;;;;;8396088;28;20037;-85
2022/07/23 22:04:06;;;;;;;14.02;10.68;;;;;;;;;;8395971;28;20124;-87
2022/07/23 22:08:10;;;;;;;14.02;10.25;;;;;;;;;;8396075;28;20040;-86
2022/07/23 22:12:13;;;;;;;16.98;11.75;;;;;;;;;;8395968;28;20462;-86
2022/07/23 22:16:16;;;;;;;14.07;10.95;;;;;;;;;;8395859;28;20049;-86
2022/07/23 22:20:22;;;;;;;14.02;10.43;;;;;;;;;;8395671;28;20071;-86
2022/07/23 22:24:26;;;;;;;14.25;11.27;;;;;;;;;;8401004;28;20041;-87
2022/07/23 22:28:28;;;;;;;16.17;10.88;;;;;;;;;;8397311;28;20064;-86
2022/07/23 22:32:32;;;;;;;16.63;11.40;;;;;;;;;;8387389;28;20437;-86
2022/07/23 22:36:37;;;;;;;19.08;11.60;;;;;;;;;;8401477;28;20051;-87
2022/07/23 22:40:40;;;;;;;16.52;11.77;;;;;;;;;;8401185;28;20049;-87
2022/07/23 22:44:42;;;;;;;16.27;11.85;;;;;;;;;;8402033;28;20048;-86
2022/07/23 22:48:45;;;;;;;16.27;12.13;;;;;;;;;;8401083;28;20044;-86
2022/07/23 22:52:49;;;;;;;14.30;11.27;;;;;;;;;;8400862;28;20052;-86
2022/07/23 22:56:52;;;;;;;17.02;11.68;;;;;;;;;;8403224;28;20048;-86
2022/07/23 23:00:55;;;;;;;14.65;11.45;;;;;;;;;;8400664;28;20095;-86
2022/07/23 23:04:58;;;;;;;16.17;11.38;;;;;;;;;;8386557;28;20040;-85
2022/07/23 23:09:02;;;;;;;17.38;12.65;;;;;;;;;;8395962;28;20048;-86
2022/07/23 23:13:05;;;;;;;16.27;12.30;;;;;;;;;;8393619;28;20048;-86
2022/07/23 23:17:08;;;;;;;17.08;11.63;;;;;;;;;;8397261;28;20047;-88
2022/07/23 23:21:10;;;;;;;16.35;11.88;;;;;;;;;;8396589;28;20045;-86
2022/07/23 23:25:15;;;;;;;16.27;11.70;;;;;;;;;;8394995;28;20060;-86
2022/07/23 23:29:18;;;;;;;16.13;11.18;;;;;;;;;;8396869;28;20417;-87
2022/07/23 23:33:20;;;;;;;15.18;11.43;;;;;;;;;;8398872;28;20399;-87
2022/07/23 23:37:23;;;;;;;14.95;11.75;;;;;;;;;;8397512;28;20044;-87
2022/07/23 23:41:28;;;;;;;15.10;11.75;;;;;;;;;;8399430;28;20075;-87
2022/07/23 23:45:32;;;;;;;14.60;11.80;;;;;;;;;;8390460;28;20051;-89
2022/07/23 23:49:35;;;;;;;16.02;11.50;;;;;;;;;;8401025;28;20055;-87
2022/07/23 23:53:38;;;;;;;16.55;12.18;;;;;;;;;;8395498;28;20067;-87
2022/07/23 23:57:43;;;;;;;15.93;11.77;;;;;;;;;;8397576;28;20044;-87
